createdAt,value
2019-05-05T00:00:52.720Z,74.21
2019-05-05T00:03:34.285Z,75.06
2019-05-05T00:06:02.812Z,75.54
2019-05-05T00:08:28.234Z,75.24
2019-05-05T00:11:09.599Z,74.98
2019-05-05T00:13:41.906Z,74.88
2019-05-05T00:16:26.233Z,74.67
2019-05-05T00:18:54.272Z,74.41
2019-05-05T00:21:19.790Z,74.32
2019-05-05T00:23:45.264Z,74.65
2019-05-05T00:26:10.939Z,74.73
2019-05-05T00:28:36.397Z,74.27
2019-05-05T00:31:02.081Z,74.29
2019-05-05T00:33:27.548Z,74.58
2019-05-05T00:35:54.507Z,74.00
2019-05-05T00:38:20.104Z,74.61
2019-05-05T00:40:45.566Z,74.61
2019-05-05T00:43:11.000Z,75.16
2019-05-05T00:45:37.831Z,74.98
2019-05-05T00:48:10.182Z,74.87
2019-05-05T00:50:35.847Z,74.49
2019-05-05T00:53:01.292Z,74.74
2019-05-05T00:55:26.880Z,74.62
2019-05-05T00:57:52.353Z,75.52
2019-05-05T01:00:34.998Z,74.89
2019-05-05T01:03:00.573Z,74.99
2019-05-05T01:05:30.479Z,74.72
2019-05-05T01:07:56.007Z,74.46
2019-05-05T01:10:24.621Z,74.79
2019-05-05T01:12:50.024Z,74.25
2019-05-05T01:15:16.254Z,74.53
2019-05-05T01:17:41.712Z,74.43
2019-05-05T01:20:07.739Z,74.94
2019-05-05T01:22:34.176Z,74.16
2019-05-05T01:24:59.691Z,73.65
2019-05-05T01:27:25.558Z,73.59
2019-05-05T01:29:51.005Z,74.07
2019-05-05T01:32:21.910Z,73.94
2019-05-05T01:34:47.492Z,73.36
2019-05-05T01:37:25.357Z,72.75
2019-05-05T01:39:57.177Z,73.45
2019-05-05T01:42:24.720Z,73.77
2019-05-05T01:44:50.403Z,74.53
2019-05-05T01:47:15.895Z,74.37
2019-05-05T01:49:41.326Z,74.54
2019-05-05T01:52:06.777Z,74.00
2019-05-05T01:54:32.206Z,74.18
2019-05-05T01:56:58.419Z,74.07
2019-05-05T01:59:24.804Z,74.18
2019-05-05T02:01:50.316Z,73.94
2019-05-05T02:04:15.767Z,74.22
2019-05-05T02:06:41.503Z,74.28
2019-05-05T02:09:07.735Z,74.21
2019-05-05T02:11:35.153Z,74.13
2019-05-05T02:14:00.330Z,74.94
2019-05-05T02:16:25.784Z,74.21
2019-05-05T02:18:51.314Z,74.13
2019-05-05T02:21:16.774Z,74.22
2019-05-05T02:23:42.242Z,73.82
2019-05-05T02:26:09.579Z,73.76
2019-05-05T02:28:54.242Z,74.08
2019-05-05T02:31:26.657Z,74.03
2019-05-05T02:33:52.363Z,73.79
2019-05-05T02:36:17.809Z,74.58
2019-05-05T02:38:46.291Z,74.21
2019-05-05T02:41:11.047Z,74.99
2019-05-05T02:43:38.733Z,74.59
2019-05-05T02:46:25.445Z,74.10
2019-05-05T02:48:55.291Z,74.38
2019-05-05T02:51:25.641Z,74.29
2019-05-05T02:53:54.411Z,74.00
2019-05-05T02:56:25.838Z,73.98
2019-05-05T02:58:55.885Z,74.20
2019-05-05T03:01:47.692Z,73.89
2019-05-05T03:04:14.235Z,74.03
2019-05-05T03:06:44.467Z,74.25
2019-05-05T03:09:09.917Z,75.24
2019-05-05T03:11:37.941Z,74.94
2019-05-05T03:14:06.620Z,74.95
2019-05-05T03:16:38.721Z,74.73
2019-05-05T03:19:04.766Z,74.85
2019-05-05T03:21:30.510Z,74.74
2019-05-05T03:23:56.576Z,74.57
2019-05-05T03:26:23.399Z,74.98
2019-05-05T03:28:54.656Z,75.04
2019-05-05T03:31:20.897Z,75.64
2019-05-05T03:33:46.995Z,75.78
2019-05-05T03:36:14.003Z,75.51
2019-05-05T03:38:39.924Z,74.85
2019-05-05T03:41:07.586Z,74.95
2019-05-05T03:43:34.808Z,75.65
2019-05-05T03:46:08.741Z,76.26
2019-05-05T03:48:34.791Z,75.55
2019-05-05T03:51:00.320Z,75.34
2019-05-05T03:53:26.652Z,75.46
2019-05-05T03:55:54.503Z,75.54
2019-05-05T03:58:20.545Z,75.70
2019-05-05T04:01:39.186Z,75.93
2019-05-05T04:04:24.767Z,76.52
2019-05-05T04:07:04.535Z,76.86
2019-05-05T04:09:29.556Z,76.87
2019-05-05T04:11:55.006Z,76.78
2019-05-05T04:14:20.997Z,76.82
2019-05-05T04:17:05.746Z,76.70
2019-05-05T04:19:34.169Z,76.72
2019-05-05T04:21:59.354Z,76.78
2019-05-05T04:24:25.062Z,76.63
2019-05-05T04:26:50.423Z,76.73
2019-05-05T04:29:15.856Z,76.76
2019-05-05T04:31:41.273Z,77.25
2019-05-05T04:34:06.761Z,77.20
2019-05-05T04:36:34.010Z,77.19
2019-05-05T04:38:59.284Z,77.47
2019-05-05T04:41:24.742Z,77.39
2019-05-05T04:43:50.179Z,77.23
2019-05-05T04:46:15.653Z,77.10
2019-05-05T04:48:50.126Z,76.92
2019-05-05T04:51:20.003Z,77.51
2019-05-05T04:54:03.886Z,77.98
2019-05-05T04:56:30.040Z,77.62
2019-05-05T04:58:55.728Z,78.13
2019-05-05T05:01:21.097Z,77.63
2019-05-05T05:03:57.015Z,77.06
2019-05-05T05:06:30.776Z,77.01
2019-05-05T05:08:56.309Z,77.13
2019-05-05T05:11:21.997Z,77.30
2019-05-05T05:13:47.747Z,76.82
2019-05-05T05:16:13.981Z,76.60
2019-05-05T05:18:39.515Z,76.66
2019-05-05T05:21:05.072Z,76.44
2019-05-05T05:23:30.543Z,76.91
2019-05-05T05:25:56.042Z,77.03
2019-05-05T05:28:23.635Z,77.53
2019-05-05T05:30:48.967Z,77.92
2019-05-05T05:33:15.017Z,77.55
2019-05-05T05:35:40.495Z,78.59
2019-05-05T05:38:08.027Z,78.05
2019-05-05T05:40:40.327Z,77.70
2019-05-05T05:43:08.208Z,78.81
2019-05-05T05:45:46.940Z,78.54
2019-05-05T05:48:30.024Z,77.91
2019-05-05T05:50:57.911Z,78.84
2019-05-05T05:53:24.012Z,78.72
2019-05-05T05:55:51.106Z,78.77
2019-05-05T05:58:16.564Z,79.00
2019-05-05T06:00:44.306Z,79.59
2019-05-05T06:03:10.372Z,79.29
2019-05-05T06:05:36.548Z,79.25
2019-05-05T06:08:04.526Z,79.48
2019-05-05T06:10:30.165Z,79.36
2019-05-05T06:12:55.758Z,79.45
2019-05-05T06:15:21.411Z,79.58
2019-05-05T06:17:47.129Z,79.42
2019-05-05T06:20:14.380Z,80.14
2019-05-05T06:22:40.126Z,80.53
2019-05-05T06:25:06.594Z,80.75
2019-05-05T06:27:34.293Z,80.55
2019-05-05T06:29:59.670Z,80.58
2019-05-05T06:32:25.496Z,80.65
2019-05-05T06:34:50.860Z,80.65
2019-05-05T06:37:16.330Z,80.80
2019-05-05T06:39:43.819Z,80.75
2019-05-05T06:42:30.826Z,80.76
2019-05-05T06:45:01.027Z,81.23
2019-05-05T06:47:37.006Z,80.26
2019-05-05T06:50:03.704Z,79.71
2019-05-05T06:52:42.006Z,79.78
2019-05-05T06:54:56.663Z,79.43
2019-05-05T06:57:24.054Z,79.44
2019-05-05T06:59:50.142Z,79.90
2019-05-05T07:02:16.419Z,79.66
2019-05-05T07:04:44.295Z,78.44
2019-05-05T07:07:09.325Z,77.04
2019-05-05T07:09:34.938Z,77.56
2019-05-05T07:12:00.580Z,77.19
2019-05-05T07:14:26.078Z,76.13
2019-05-05T07:16:51.868Z,76.10
2019-05-05T07:19:17.713Z,75.67
2019-05-05T07:21:43.798Z,75.35
2019-05-05T07:24:09.395Z,75.58
2019-05-05T07:26:34.930Z,74.38
2019-05-05T07:29:00.348Z,74.27
2019-05-05T07:31:25.801Z,72.69
2019-05-05T07:33:51.386Z,72.76
2019-05-05T07:36:37.534Z,72.65
2019-05-05T07:39:03.878Z,71.72
2019-05-05T07:41:29.372Z,71.62
2019-05-05T07:43:54.885Z,69.72
2019-05-05T07:46:20.444Z,68.48
2019-05-05T07:48:46.119Z,66.24
2019-05-05T07:51:13.855Z,66.85
2019-05-05T07:53:39.614Z,65.74
2019-05-05T07:56:07.596Z,67.19
2019-05-05T07:58:34.410Z,64.69
2019-05-05T08:00:59.757Z,65.97
2019-05-05T08:03:25.234Z,68.58
2019-05-05T08:05:50.670Z,69.10
2019-05-05T08:08:16.147Z,67.54
2019-05-05T08:10:43.654Z,66.49
2019-05-05T08:13:09.912Z,67.52
2019-05-05T08:15:35.580Z,66.70
2019-05-05T08:18:19.013Z,65.88
2019-05-05T08:20:47.317Z,65.63
2019-05-05T08:23:30.142Z,66.29
2019-05-05T08:26:05.199Z,63.69
2019-05-05T08:28:36.430Z,62.29
2019-05-05T08:31:38.996Z,64.37
2019-05-05T08:34:04.769Z,65.62
2019-05-05T08:36:30.351Z,68.80
2019-05-05T08:38:55.809Z,71.36
2019-05-05T08:41:25.512Z,72.85
2019-05-05T08:43:50.977Z,71.64
2019-05-05T08:46:16.476Z,71.69
2019-05-05T08:48:41.930Z,69.96
2019-05-05T08:51:07.435Z,68.53
2019-05-05T08:53:42.490Z,65.96
2019-05-05T08:56:00.560Z,67.97
2019-05-05T08:58:26.154Z,67.01
2019-05-05T09:00:53.611Z,64.89
2019-05-05T09:03:18.836Z,63.92
2019-05-05T09:05:44.311Z,63.49
2019-05-05T09:08:09.794Z,63.84
2019-05-05T09:10:35.201Z,61.37
2019-05-05T09:13:00.959Z,61.39
2019-05-05T09:15:26.392Z,62.23
2019-05-05T09:17:54.291Z,59.57
2019-05-05T09:20:20.308Z,60.43
2019-05-05T09:22:46.251Z,59.30
2019-05-05T09:25:30.060Z,60.50
2019-05-05T09:27:59.363Z,60.27
2019-05-05T09:30:38.880Z,55.88
2019-05-05T09:33:04.625Z,54.44
2019-05-05T09:35:30.468Z,55.26
2019-05-05T09:37:55.999Z,55.68
2019-05-05T09:40:37.997Z,56.19
2019-05-05T09:43:03.922Z,56.33
2019-05-05T09:45:29.362Z,57.32
2019-05-05T09:47:55.178Z,56.41
2019-05-05T09:50:20.854Z,58.04
2019-05-05T09:52:46.219Z,60.01
2019-05-05T09:55:13.694Z,54.74
2019-05-05T09:57:38.909Z,53.99
2019-05-05T10:00:10.706Z,54.45
2019-05-05T10:02:36.647Z,54.54
2019-05-05T10:05:03.997Z,56.03
2019-05-05T10:07:29.822Z,55.29
2019-05-05T10:09:55.298Z,58.49
2019-05-05T10:12:20.861Z,58.63
2019-05-05T10:14:46.836Z,56.46
2019-05-05T10:17:14.126Z,56.41
2019-05-05T10:19:39.636Z,58.61
2019-05-05T10:22:05.487Z,56.84
2019-05-05T10:24:39.362Z,59.08
2019-05-05T10:27:05.075Z,57.14
2019-05-05T10:29:30.482Z,56.36
2019-05-05T10:31:55.846Z,55.93
2019-05-05T10:34:21.507Z,54.90
2019-05-05T10:36:46.951Z,57.21
2019-05-05T10:39:19.202Z,55.52
2019-05-05T10:41:44.872Z,54.08
2019-05-05T10:44:10.300Z,52.48
2019-05-05T10:46:35.881Z,54.38
2019-05-05T10:49:01.347Z,54.10
2019-05-05T10:51:27.149Z,51.84
2019-05-05T10:53:54.507Z,50.95
2019-05-05T10:56:20.069Z,52.62
2019-05-05T10:58:45.562Z,51.51
2019-05-05T11:01:11.080Z,51.22
2019-05-05T11:03:37.093Z,49.45
2019-05-05T11:06:04.536Z,52.26
2019-05-05T11:08:31.089Z,46.77
2019-05-05T11:10:56.600Z,49.43
2019-05-05T11:13:28.447Z,47.94
2019-05-05T11:15:54.662Z,48.83
2019-05-05T11:18:20.888Z,48.72
2019-05-05T11:20:47.630Z,48.69
2019-05-05T11:23:14.938Z,46.81
2019-05-05T11:25:40.741Z,47.46
2019-05-05T11:28:08.589Z,48.40
2019-05-05T11:30:38.176Z,45.61
2019-05-05T11:33:37.913Z,46.78
2019-05-05T11:36:13.490Z,45.15
2019-05-05T11:38:41.234Z,45.14
2019-05-05T11:41:06.500Z,44.85
2019-05-05T11:43:35.090Z,46.40
2019-05-05T11:46:02.137Z,46.21
2019-05-05T11:48:27.719Z,48.54
2019-05-05T11:50:54.136Z,49.39
2019-05-05T11:53:20.277Z,52.49
2019-05-05T11:55:45.643Z,51.02
2019-05-05T11:58:11.213Z,51.43
2019-05-05T12:00:36.849Z,52.20
2019-05-05T12:03:03.855Z,53.52
2019-05-05T12:05:29.550Z,54.56
2019-05-05T12:07:58.469Z,55.99
2019-05-05T12:10:58.242Z,55.30
2019-05-05T12:13:24.121Z,55.52
2019-05-05T12:15:54.351Z,53.85
2019-05-05T12:18:19.780Z,53.10
2019-05-05T12:20:45.304Z,53.40
2019-05-05T12:23:10.862Z,51.71
2019-05-05T12:25:57.287Z,51.89
2019-05-05T12:28:34.702Z,52.28
2019-05-05T12:31:03.593Z,51.34
2019-05-05T12:33:29.358Z,51.46
2019-05-05T12:35:54.781Z,44.72
2019-05-05T12:38:20.228Z,43.35
2019-05-05T12:40:45.962Z,44.37
2019-05-05T12:43:11.528Z,44.75
2019-05-05T12:45:38.662Z,44.34
2019-05-05T12:48:23.966Z,43.46
2019-05-05T12:50:49.253Z,42.66
2019-05-05T12:53:15.011Z,43.77
2019-05-05T12:55:41.847Z,43.04
2019-05-05T12:58:07.688Z,43.84
2019-05-05T13:00:34.619Z,45.10
2019-05-05T13:03:00.061Z,47.92
2019-05-05T13:05:25.540Z,49.64
2019-05-05T13:07:51.036Z,51.11
2019-05-05T13:10:20.853Z,52.32
2019-05-05T13:12:46.575Z,52.18
2019-05-05T13:15:14.250Z,53.24
2019-05-05T13:17:39.457Z,53.23
2019-05-05T13:20:29.183Z,54.85
2019-05-05T13:23:23.458Z,53.81
2019-05-05T13:26:10.408Z,53.88
2019-05-05T13:28:36.043Z,53.67
2019-05-05T13:31:01.527Z,50.72
2019-05-05T13:33:27.354Z,49.43
2019-05-05T13:35:53.778Z,49.56
2019-05-05T13:38:19.630Z,50.38
2019-05-05T13:40:45.353Z,51.37
2019-05-05T13:43:10.785Z,50.36
2019-05-05T13:45:55.746Z,51.06
2019-05-05T13:48:21.277Z,50.15
2019-05-05T13:50:50.055Z,46.83
2019-05-05T13:53:15.772Z,47.20
2019-05-05T13:55:42.345Z,48.33
2019-05-05T13:58:09.022Z,45.32
2019-05-05T14:00:34.507Z,44.96
2019-05-05T14:02:59.936Z,46.96
2019-05-05T14:05:25.382Z,46.09
2019-05-05T14:07:50.829Z,45.62
2019-05-05T14:10:16.925Z,46.72
2019-05-05T14:12:43.781Z,46.40
2019-05-05T14:15:19.452Z,49.65
2019-05-05T14:17:44.982Z,46.12
2019-05-05T14:20:12.101Z,46.45
2019-05-05T14:22:37.620Z,44.95
2019-05-05T14:25:14.294Z,45.93
2019-05-05T14:27:40.006Z,45.86
2019-05-05T14:30:23.813Z,45.31
2019-05-05T14:32:49.347Z,46.43
2019-05-05T14:35:40.253Z,49.74
2019-05-05T14:38:09.455Z,51.89
2019-05-05T14:40:35.018Z,52.89
2019-05-05T14:43:00.594Z,51.32
2019-05-05T14:45:26.177Z,50.26
2019-05-05T14:47:53.474Z,51.08
2019-05-05T14:50:20.850Z,51.72
2019-05-05T14:52:46.302Z,52.19
2019-05-05T14:55:14.082Z,52.29
2019-05-05T14:57:39.704Z,51.97
2019-05-05T15:00:06.479Z,51.77
2019-05-05T15:02:31.910Z,52.41
2019-05-05T15:04:59.887Z,52.14
2019-05-05T15:07:40.581Z,51.56
2019-05-05T15:10:31.479Z,50.96
2019-05-05T15:13:00.918Z,51.09
2019-05-05T15:15:26.862Z,50.88
2019-05-05T15:17:53.664Z,50.19
2019-05-05T15:20:19.259Z,51.09
2019-05-05T15:22:44.715Z,49.30
2019-05-05T15:25:10.223Z,49.25
2019-05-05T15:27:35.695Z,50.61
2019-05-05T15:30:01.500Z,49.99
2019-05-05T15:32:27.113Z,49.41
2019-05-05T15:34:54.512Z,49.87
2019-05-05T15:37:19.813Z,49.46
2019-05-05T15:39:45.363Z,49.56
2019-05-05T15:42:10.881Z,50.38
2019-05-05T15:44:36.525Z,49.98
2019-05-05T15:47:02.259Z,50.98
2019-05-05T15:49:28.143Z,50.99
2019-05-05T15:51:54.017Z,50.07
2019-05-05T15:54:19.766Z,51.05
2019-05-05T15:56:45.386Z,50.48
2019-05-05T15:59:10.792Z,50.82
2019-05-05T16:01:38.068Z,50.08
2019-05-05T16:04:03.678Z,50.95
2019-05-05T16:06:29.986Z,51.31
2019-05-05T16:08:56.679Z,51.73
2019-05-05T16:11:23.379Z,52.27
2019-05-05T16:13:48.826Z,51.28
2019-05-05T16:16:23.592Z,52.06
2019-05-05T16:19:08.636Z,52.02
2019-05-05T16:21:54.649Z,51.09
2019-05-05T16:24:22.338Z,51.29
2019-05-05T16:26:48.009Z,50.89
2019-05-05T16:29:14.825Z,50.93
2019-05-05T16:31:40.584Z,51.52
2019-05-05T16:34:06.193Z,50.33
2019-05-05T16:36:33.571Z,50.82
2019-05-05T16:38:59.327Z,50.24
2019-05-05T16:41:24.847Z,50.35
2019-05-05T16:43:50.712Z,48.59
2019-05-05T16:46:16.990Z,48.91
2019-05-05T16:48:43.926Z,46.25
2019-05-05T16:51:14.065Z,45.70
2019-05-05T16:53:40.822Z,43.98
2019-05-05T16:56:10.593Z,44.78
2019-05-05T16:58:36.199Z,44.50
2019-05-05T17:01:03.809Z,44.75
2019-05-05T17:03:30.173Z,45.84
2019-05-05T17:05:58.135Z,46.76
2019-05-05T17:08:24.473Z,47.49
2019-05-05T17:10:56.159Z,48.42
2019-05-05T17:13:38.027Z,49.99
2019-05-05T17:16:25.901Z,50.77
2019-05-05T17:19:15.427Z,51.80
2019-05-05T17:21:58.632Z,51.25
2019-05-05T17:24:24.226Z,51.13
2019-05-05T17:26:54.863Z,50.89
2019-05-05T17:29:20.035Z,51.26
2019-05-05T17:31:45.799Z,51.88
2019-05-05T17:34:13.602Z,52.25
2019-05-05T17:36:38.762Z,51.82
2019-05-05T17:39:06.920Z,51.53
2019-05-05T17:41:53.873Z,50.94
2019-05-05T17:44:45.581Z,51.97
2019-05-05T17:47:20.012Z,51.55
2019-05-05T17:49:58.061Z,51.82
2019-05-05T17:52:53.616Z,52.50
2019-05-05T17:55:33.850Z,52.31
2019-05-05T17:58:02.580Z,53.43
2019-05-05T18:00:29.258Z,52.17
2019-05-05T18:02:55.304Z,52.18
2019-05-05T18:05:24.803Z,52.48
2019-05-05T18:07:50.644Z,52.10
2019-05-05T18:10:26.744Z,52.70
2019-05-05T18:13:07.259Z,51.40
2019-05-05T18:15:50.846Z,52.67
2019-05-05T18:18:16.715Z,53.00
2019-05-05T18:20:42.153Z,53.66
2019-05-05T18:23:07.935Z,52.44
2019-05-05T18:25:34.684Z,53.04
2019-05-05T18:28:15.299Z,54.20
2019-05-05T18:30:28.050Z,55.31
2019-05-05T18:32:53.543Z,55.23
2019-05-05T18:35:19.389Z,54.96
2019-05-05T18:37:45.351Z,55.78
2019-05-05T18:40:11.361Z,55.70
2019-05-05T18:42:36.891Z,56.79
2019-05-05T18:45:07.056Z,55.75
2019-05-05T18:47:34.072Z,57.06
2019-05-05T18:49:59.822Z,55.00
2019-05-05T18:52:25.678Z,56.40
2019-05-05T18:54:51.215Z,56.39
2019-05-05T18:57:17.365Z,54.63
2019-05-05T18:59:44.738Z,54.75
2019-05-05T19:02:29.505Z,53.78
2019-05-05T19:05:05.342Z,53.73
2019-05-05T19:07:36.700Z,54.44
2019-05-05T19:10:04.032Z,54.46
2019-05-05T19:12:29.665Z,53.64
2019-05-05T19:14:55.271Z,53.84
2019-05-05T19:17:21.168Z,53.64
2019-05-05T19:19:54.935Z,52.88
2019-05-05T19:22:20.413Z,53.52
2019-05-05T19:24:46.961Z,53.26
2019-05-05T19:27:14.167Z,53.41
2019-05-05T19:29:39.829Z,53.91
2019-05-05T19:32:06.170Z,54.39
2019-05-05T19:34:35.143Z,55.34
2019-05-05T19:36:59.241Z,54.45
2019-05-05T19:39:24.890Z,55.32
2019-05-05T19:41:50.884Z,55.18
2019-05-05T19:44:17.230Z,54.86
2019-05-05T19:47:05.683Z,54.85
2019-05-05T19:49:29.785Z,54.42
2019-05-05T19:51:56.155Z,55.22
2019-05-05T19:54:21.962Z,55.72
2019-05-05T19:56:48.161Z,56.44
2019-05-05T19:59:13.901Z,56.05
2019-05-05T20:01:39.681Z,56.41
2019-05-05T20:04:05.177Z,57.15
2019-05-05T20:06:30.635Z,56.48
2019-05-05T20:08:56.317Z,56.95
2019-05-05T20:11:24.610Z,55.90
2019-05-05T20:14:04.701Z,56.88
2019-05-05T20:16:34.276Z,56.25
2019-05-05T20:19:01.511Z,55.43
2019-05-05T20:21:31.537Z,56.42
2019-05-05T20:23:57.604Z,56.15
2019-05-05T20:26:23.993Z,56.39
2019-05-05T20:28:50.580Z,56.32
2019-05-05T20:31:16.507Z,56.10
2019-05-05T20:34:03.872Z,56.27
2019-05-05T20:36:35.788Z,57.51
2019-05-05T20:39:04.349Z,58.11
2019-05-05T20:41:56.205Z,58.90
2019-05-05T20:44:24.739Z,59.47
2019-05-05T20:46:53.556Z,59.32
2019-05-05T20:49:19.295Z,58.95
2019-05-05T20:51:44.828Z,59.91
2019-05-05T20:54:10.337Z,60.52
2019-05-05T20:56:36.073Z,59.95
2019-05-05T20:59:01.456Z,60.33
2019-05-05T21:01:28.032Z,60.64
2019-05-05T21:03:54.095Z,61.09
2019-05-05T21:06:20.435Z,61.08
2019-05-05T21:08:46.281Z,60.79
2019-05-05T21:11:14.093Z,61.16
2019-05-05T21:13:39.205Z,60.51
2019-05-05T21:16:05.579Z,60.69
2019-05-05T21:18:34.525Z,61.05
2019-05-05T21:21:01.299Z,61.38
2019-05-05T21:23:34.442Z,60.41
2019-05-05T21:26:04.500Z,60.32
2019-05-05T21:28:29.933Z,60.64
2019-05-05T21:30:55.735Z,61.05
2019-05-05T21:33:21.254Z,61.80
2019-05-05T21:35:46.735Z,62.71
2019-05-05T21:38:14.175Z,62.71
2019-05-05T21:40:40.419Z,62.94
2019-05-05T21:43:06.618Z,63.73
2019-05-05T21:45:32.084Z,63.82
2019-05-05T21:47:58.085Z,63.43
2019-05-05T21:50:33.912Z,63.38
2019-05-05T21:53:07.942Z,63.03
2019-05-05T21:55:38.643Z,63.85
2019-05-05T21:58:15.829Z,63.89
2019-05-05T22:01:04.409Z,64.50
2019-05-05T22:03:39.106Z,64.60
2019-05-05T22:06:07.227Z,64.09
2019-05-05T22:08:33.641Z,65.05
2019-05-05T22:10:59.255Z,64.00
2019-05-05T22:13:24.702Z,65.06
2019-05-05T22:15:50.153Z,64.34
2019-05-05T22:18:15.593Z,65.40
2019-05-05T22:20:45.574Z,65.25
2019-05-05T22:23:11.008Z,65.06
2019-05-05T22:25:36.449Z,65.86
2019-05-05T22:28:04.271Z,64.60
2019-05-05T22:30:29.618Z,65.59
2019-05-05T22:32:54.974Z,65.22
2019-05-05T22:35:20.848Z,64.42
2019-05-05T22:37:46.275Z,64.42
2019-05-05T22:40:24.433Z,64.29
2019-05-05T22:42:50.237Z,64.13
2019-05-05T22:45:16.576Z,65.82
2019-05-05T22:47:42.127Z,65.61
2019-05-05T22:50:08.566Z,65.28
2019-05-05T22:52:34.611Z,65.56
2019-05-05T22:55:00.329Z,65.80
2019-05-05T22:57:26.498Z,65.32
2019-05-05T22:59:53.995Z,64.92
2019-05-05T23:02:21.234Z,65.37
2019-05-05T23:05:09.247Z,65.48
2019-05-05T23:07:35.125Z,65.96
2019-05-05T23:10:01.339Z,66.19
2019-05-05T23:12:26.796Z,66.36
2019-05-05T23:14:54.345Z,66.94
2019-05-05T23:17:28.776Z,66.58
2019-05-05T23:20:04.796Z,66.49
2019-05-05T23:22:54.796Z,67.13
2019-05-05T23:25:26.390Z,66.57
2019-05-05T23:27:54.571Z,66.03
2019-05-05T23:30:23.563Z,66.47
2019-05-05T23:32:49.435Z,66.67
2019-05-05T23:35:15.663Z,65.83
2019-05-05T23:37:41.823Z,65.61
2019-05-05T23:40:07.987Z,66.27
2019-05-05T23:42:34.588Z,66.99
2019-05-05T23:45:00.510Z,66.93
2019-05-05T23:47:27.030Z,66.58
2019-05-05T23:49:53.768Z,66.67
2019-05-05T23:52:20.227Z,67.73
2019-05-05T23:54:45.725Z,66.68
2019-05-05T23:57:13.770Z,66.48
2019-05-05T23:59:39.640Z,66.54
